Time;durP1;ratioP1;P1;durP2;ratioP2;P2;SDS_P1;SDS_P2;PMS_P1;PMS_P2;Temp;Humidity;BMP_temperature;BMP_pressure;BME280_temperature;BME280_humidity;BME280_pressure;Samples;Min_cycle;Max_cycle;Signal;HPM_P1;HPM_P2
2022/03/07 17:26:08;;;;;;;6.95;3.28;;;;;;;3.34;55.98;102272.56;5989307;23;20992;31
2022/03/07 17:28:34;;;;;;;8.15;3.30;;;;;;;3.27;56.02;102266.31;4874568;29;20492;-88
2022/03/07 17:30:59;;;;;;;4.68;3.30;;;;;;;3.11;56.93;102254.78;4880486;29;20048;-87
2022/03/07 17:33:24;;;;;;;7.33;3.57;;;;;;;3.01;57.19;102268.22;4881647;29;20025;-86
2022/03/07 17:35:50;;;;;;;6.07;3.60;;;;;;;2.86;58.16;102270.78;4891083;29;20024;-86
2022/03/07 17:38:15;;;;;;;6.57;3.50;;;;;;;2.77;57.87;102266.50;4884330;29;20047;-86
2022/03/07 17:40:41;;;;;;;5.68;3.95;;;;;;;2.67;58.61;102266.69;4893301;29;20052;-85
2022/03/07 17:43:06;;;;;;;4.73;3.73;;;;;;;2.55;59.49;102274.19;4864540;29;20029;-85
2022/03/07 17:45:31;;;;;;;5.03;3.90;;;;;;;2.40;59.98;102267.91;4881574;29;20709;-85
2022/03/07 17:47:57;;;;;;;5.03;4.00;;;;;;;2.29;60.21;102270.91;4879892;29;20060;-85
2022/03/07 17:50:23;;;;;;;6.60;3.80;;;;;;;2.20;60.35;102275.38;4880930;29;20123;-86
2022/03/07 17:52:50;;;;;;;6.10;3.40;;;;;;;2.10;61.33;102275.53;4881071;29;20040;-85
2022/03/07 17:55:17;;;;;;;7.80;4.00;;;;;;;1.98;61.43;102274.22;4879213;29;20032;-85
2022/03/07 17:57:43;;;;;;;7.40;4.35;;;;;;;1.85;61.88;102286.09;4879457;29;20480;-85
2022/03/07 18:00:12;;;;;;;8.00;4.63;;;;;;;1.75;61.86;102285.44;4882436;29;20043;-86
2022/03/07 18:02:39;;;;;;;14.70;5.47;;;;;;;1.62;61.95;102285.91;4881461;29;20037;-86
2022/03/07 18:05:04;;;;;;;12.07;5.40;;;;;;;1.51;62.99;102277.31;4879694;29;20632;-88
2022/03/07 18:07:30;;;;;;;13.98;5.93;;;;;;;1.44;65.52;102291.31;4877884;29;20036;-86
2022/03/07 18:09:55;;;;;;;20.93;8.10;;;;;;;1.35;63.43;102278.06;4879265;29;20083;-85
2022/03/07 18:12:20;;;;;;;24.97;10.20;;;;;;;1.26;63.45;102279.03;4876583;29;20044;-86
2022/03/07 18:14:47;;;;;;;23.80;10.93;;;;;;;1.16;64.52;102273.06;4885179;29;20082;-87
2022/03/07 18:17:13;;;;;;;27.38;11.80;;;;;;;1.07;64.80;102279.28;4876672;29;20157;-87
2022/03/07 18:19:38;;;;;;;26.63;12.95;;;;;;;1.01;65.18;102281.56;4877439;29;20122;-86
2022/03/07 18:22:07;;;;;;;28.77;13.70;;;;;;;0.93;65.23;102284.16;4881544;29;20033;-86
2022/03/07 18:24:35;;;;;;;24.00;12.52;;;;;;;0.85;65.38;102278.88;4889057;29;20064;-85
2022/03/07 18:27:02;;;;;;;16.58;8.60;;;;;;;0.81;65.49;102283.63;4878413;29;20037;-85
2022/03/07 18:29:27;;;;;;;20.35;10.98;;;;;;;0.74;66.29;102280.78;4877976;29;20037;-86
2022/03/07 18:31:53;;;;;;;15.43;7.07;;;;;;;0.70;65.51;102276.81;4862445;29;20105;-86
2022/03/07 18:34:19;;;;;;;12.77;5.67;;;;;;;0.73;65.72;102279.13;4879206;29;20085;-86
2022/03/07 18:36:45;;;;;;;13.77;6.15;;;;;;;0.70;66.44;102274.16;4888337;29;20025;-85
2022/03/07 18:39:11;;;;;;;8.70;5.20;;;;;;;0.67;66.51;102276.28;4897125;29;20052;-87
2022/03/07 18:41:38;;;;;;;5.93;4.60;;;;;;;0.67;66.55;102279.75;4877548;29;20029;-84
2022/03/07 18:44:03;;;;;;;9.13;4.38;;;;;;;0.67;66.52;102276.28;4876470;29;20633;-84
2022/03/07 18:46:29;;;;;;;7.35;4.45;;;;;;;0.63;66.45;102282.88;4890642;29;20025;-84
2022/03/07 18:48:54;;;;;;;6.37;4.50;;;;;;;0.59;66.79;102274.41;4879910;29;20044;-84
2022/03/07 18:51:19;;;;;;;7.20;4.03;;;;;;;0.54;67.06;102284.63;4878339;29;20048;-85
2022/03/07 18:53:44;;;;;;;13.83;4.40;;;;;;;0.48;67.30;102278.13;4893089;29;20028;-85
2022/03/07 18:56:10;;;;;;;5.60;4.20;;;;;;;0.53;67.50;102281.16;4879735;29;20157;-86
2022/03/07 18:58:36;;;;;;;6.32;4.32;;;;;;;0.55;67.56;102286.25;4880852;29;20153;-86
2022/03/07 19:01:01;;;;;;;6.38;4.38;;;;;;;0.57;67.36;102285.13;4880888;29;20120;-86
2022/03/07 19:03:27;;;;;;;6.90;4.40;;;;;;;0.55;67.73;102291.53;4890485;29;20040;-86
2022/03/07 19:05:52;;;;;;;7.43;4.60;;;;;;;0.56;67.50;102291.38;4894162;29;20129;-85
2022/03/07 19:08:19;;;;;;;7.83;4.93;;;;;;;0.47;67.79;102294.13;4882818;29;20136;-86
2022/03/07 19:10:44;;;;;;;8.68;4.43;;;;;;;0.37;68.99;102294.22;4879586;29;20029;-86
2022/03/07 19:13:10;;;;;;;7.53;4.97;;;;;;;0.33;69.14;102293.72;4886731;29;20100;-85
2022/03/07 19:15:36;;;;;;;8.20;4.65;;;;;;;0.27;69.12;102299.59;4881341;29;20021;-85
2022/03/07 19:18:01;;;;;;;8.73;4.43;;;;;;;0.17;69.38;102302.31;4881159;29;20040;-86
2022/03/07 19:20:27;;;;;;;6.20;4.70;;;;;;;0.11;70.02;102305.53;4880719;29;20048;-86
2022/03/07 19:22:53;;;;;;;9.23;5.27;;;;;;;0.07;70.15;102304.22;4880528;29;20041;-86
2022/03/07 19:25:18;;;;;;;7.60;4.85;;;;;;;0.01;70.58;102310.88;4880240;29;20064;-86
2022/03/07 19:27:45;;;;;;;10.67;5.30;;;;;;;-0.01;70.25;102311.06;4879734;29;20489;-86
2022/03/07 19:30:12;;;;;;;6.93;4.90;;;;;;;0.03;70.86;102306.28;4881595;29;20136;-85
2022/03/07 19:32:37;;;;;;;10.32;4.82;;;;;;;0.02;71.28;102296.72;4887201;29;20033;-86
2022/03/07 19:35:04;;;;;;;9.95;5.10;;;;;;;-0.02;71.13;102300.66;4877397;29;20033;-86
2022/03/07 19:37:29;;;;;;;8.40;5.25;;;;;;;-0.04;71.44;102300.00;4876962;29;20040;-86
2022/03/07 19:39:55;;;;;;;7.13;4.87;;;;;;;-0.05;71.90;102296.50;4877797;29;20035;-86
2022/03/07 19:42:22;;;;;;;8.25;5.65;;;;;;;-0.07;71.69;102289.75;4877399;29;20088;-85
2022/03/07 19:44:49;;;;;;;7.57;5.63;;;;;;;-0.09;72.17;102294.34;4878030;29;20043;-85
2022/03/07 19:47:14;;;;;;;9.55;5.95;;;;;;;-0.11;71.64;102291.03;4877607;29;20512;-84
2022/03/07 19:49:40;;;;;;;9.57;5.73;;;;;;;-0.11;72.03;102296.28;4878039;29;20036;-84
2022/03/07 19:52:05;;;;;;;8.73;5.27;;;;;;;-0.07;72.20;102287.09;4877979;29;20029;-85
2022/03/07 19:54:30;;;;;;;15.43;5.90;;;;;;;-0.12;71.71;102286.72;4876188;29;20520;-85
2022/03/07 19:56:56;;;;;;;7.25;5.40;;;;;;;-0.22;71.85;102276.25;4876833;29;20033;-86
2022/03/07 19:59:21;;;;;;;7.97;4.97;;;;;;;-0.10;71.18;102292.69;4878307;29;20084;-86
2022/03/07 20:01:46;;;;;;;10.93;5.40;;;;;;;-0.10;71.41;102287.41;4877920;29;20439;-86
2022/03/07 20:04:13;;;;;;;13.30;5.90;;;;;;;-0.15;71.36;102293.13;4879579;29;20029;-86
2022/03/07 20:06:38;;;;;;;10.60;5.80;;;;;;;-0.13;72.76;102292.97;4880286;29;20507;-85
2022/03/07 20:09:04;;;;;;;11.47;5.80;;;;;;;-0.20;72.18;102283.06;4879986;29;20029;-86
2022/03/07 20:11:29;;;;;;;10.23;5.65;;;;;;;-0.26;72.21;102288.06;4879825;29;20028;-85
2022/03/07 20:13:55;;;;;;;15.20;5.67;;;;;;;-0.27;71.86;102292.53;4879308;29;20488;-86
2022/03/07 20:16:21;;;;;;;9.27;5.88;;;;;;;-0.25;72.44;102293.22;4881059;29;20032;-86
2022/03/07 20:18:48;;;;;;;8.60;5.30;;;;;;;-0.21;71.86;102284.03;4880883;29;20108;-87
2022/03/07 20:21:13;;;;;;;12.50;5.20;;;;;;;-0.20;71.11;102287.47;4881656;29;20044;-86
2022/03/07 20:23:39;;;;;;;8.73;5.27;;;;;;;-0.26;71.06;102275.75;4880601;29;20029;-88
2022/03/07 20:26:04;;;;;;;11.10;5.43;;;;;;;-0.20;70.95;102279.56;4880323;29;20029;-86
2022/03/07 20:28:29;;;;;;;10.63;5.40;;;;;;;-0.16;71.37;102281.75;4881136;29;20297;-86
2022/03/07 20:30:54;;;;;;;10.93;5.37;;;;;;;-0.11;70.38;102281.31;4880620;29;20104;-85
2022/03/07 20:33:20;;;;;;;8.93;4.90;;;;;;;-0.13;70.09;102280.63;4881778;29;20052;-86
2022/03/07 20:35:45;;;;;;;8.57;5.00;;;;;;;-0.10;70.54;102277.72;4881948;29;20029;-86
2022/03/07 20:38:13;;;;;;;9.15;4.82;;;;;;;-0.12;70.10;102284.94;4882667;29;20033;-85
2022/03/07 20:40:38;;;;;;;8.87;5.10;;;;;;;-0.17;70.20;102280.09;4888444;29;20057;-85
2022/03/07 20:43:03;;;;;;;8.93;4.70;;;;;;;-0.18;70.06;102278.44;4895010;29;20044;-86
2022/03/07 20:45:28;;;;;;;8.40;4.67;;;;;;;-0.28;70.22;102274.25;4902569;29;20540;-86
2022/03/07 20:47:54;;;;;;;7.23;4.47;;;;;;;-0.37;70.25;102275.97;4901583;29;20024;-86
2022/03/07 20:50:19;;;;;;;7.43;4.17;;;;;;;-0.41;70.47;102271.97;4893110;29;20032;-84
2022/03/07 20:52:45;;;;;;;8.63;5.40;;;;;;;-0.41;70.62;102275.41;4883434;29;20597;-86
2022/03/07 20:55:10;;;;;;;7.70;3.93;;;;;;;-0.39;70.38;102275.28;4879475;29;20289;-84
2022/03/07 20:57:37;;;;;;;8.67;4.47;;;;;;;-0.43;71.16;102271.28;4881250;29;20033;-88
2022/03/07 21:00:07;;;;;;;7.85;4.93;;;;;;;-0.36;70.94;102273.19;4881953;29;20037;-90
2022/03/07 21:02:33;;;;;;;7.32;4.63;;;;;;;-0.37;70.74;102260.16;4885090;29;20037;-88
2022/03/07 21:04:58;;;;;;;9.33;4.93;;;;;;;-0.47;70.33;102258.41;4884547;29;20060;-90
2022/03/07 21:07:23;;;;;;;7.47;4.33;;;;;;;-0.40;70.26;102271.81;4883727;29;20040;-91
2022/03/07 21:09:50;;;;;;;6.32;4.60;;;;;;;-0.48;71.13;102271.75;4885111;29;20033;-90
2022/03/07 21:12:15;;;;;;;10.03;4.30;;;;;;;-0.55;70.50;102266.25;4884669;29;20123;-91
2022/03/07 21:14:41;;;;;;;11.50;5.45;;;;;;;-0.65;70.98;102266.31;4881302;29;20089;-91
2022/03/07 21:17:06;;;;;;;11.13;5.70;;;;;;;-0.71;72.06;102276.56;4883763;29;20575;-91
2022/03/07 21:19:32;;;;;;;8.23;5.37;;;;;;;-0.79;72.05;102272.88;4863901;29;20092;-91
2022/03/07 21:21:57;;;;;;;10.40;5.43;;;;;;;-0.84;71.65;102277.75;4883064;29;20093;-91
2022/03/07 21:24:22;;;;;;;8.68;4.68;;;;;;;-0.91;71.75;102274.03;4881106;29;20041;-90
2022/03/07 21:26:48;;;;;;;14.03;5.00;;;;;;;-0.89;72.41;102273.91;4881297;29;20029;-90
2022/03/07 21:29:14;;;;;;;8.30;4.75;;;;;;;-0.94;72.23;102280.41;4882332;29;20048;-90
2022/03/07 21:31:39;;;;;;;9.47;4.70;;;;;;;-0.97;72.46;102270.19;4882653;29;20414;-91
2022/03/07 21:34:04;;;;;;;13.40;4.83;;;;;;;-0.98;72.84;102271.16;4887237;29;20039;-92
2022/03/07 21:36:30;;;;;;;13.10;5.37;;;;;;;-1.02;72.49;102267.19;4896160;29;20043;-94
2022/03/07 21:38:55;;;;;;;11.43;4.57;;;;;;;-0.94;72.47;102263.81;4888516;29;20033;-93
2022/03/07 21:41:21;;;;;;;10.97;5.27;;;;;;;-0.93;73.18;102266.28;4893599;29;20037;-91
2022/03/07 21:43:46;;;;;;;10.20;4.57;;;;;;;-0.95;72.85;102267.41;4895280;29;20025;-92
2022/03/07 21:46:11;;;;;;;9.73;5.00;;;;;;;-0.96;73.11;102273.66;4895971;29;20077;-92
2022/03/07 21:48:36;;;;;;;12.57;5.00;;;;;;;-0.97;73.42;102270.19;4890548;29;20029;-92
2022/03/07 21:51:02;;;;;;;8.40;5.27;;;;;;;-1.02;73.28;102272.44;4873394;29;20361;-92
2022/03/07 21:53:27;;;;;;;10.83;5.40;;;;;;;-1.08;73.38;102265.94;4884839;29;20112;-92
2022/03/07 21:55:53;;;;;;;11.27;5.40;;;;;;;-1.11;73.98;102266.25;4886321;29;20029;-93
2022/03/07 21:58:18;;;;;;;10.63;5.33;;;;;;;-1.15;74.21;102269.28;4884356;29;20039;-91
2022/03/07 22:00:44;;;;;;;11.30;5.40;;;;;;;-1.19;74.33;102265.31;4879559;29;20392;-92
2022/03/07 22:03:09;;;;;;;11.00;5.33;;;;;;;-1.19;74.62;102273.19;4882689;29;20232;-92
2022/03/07 22:05:35;;;;;;;7.88;5.13;;;;;;;-1.24;74.33;102273.59;4874361;29;20025;-92
2022/03/07 22:08:02;;;;;;;10.63;5.67;;;;;;;-1.28;74.77;102272.25;4873537;29;20030;-92
2022/03/07 22:10:27;;;;;;;9.13;4.85;;;;;;;-1.31;74.38;102272.53;4885868;29;20061;-92
2022/03/07 22:12:52;;;;;;;8.83;4.97;;;;;;;-1.29;74.84;102275.84;4888880;29;20037;-91
2022/03/07 22:15:18;;;;;;;14.57;5.20;;;;;;;-1.35;74.92;102276.41;4900661;29;20048;-90
2022/03/07 22:17:43;;;;;;;10.30;5.43;;;;;;;-1.38;74.84;102273.09;4900725;29;20025;-93
2022/03/07 22:20:11;;;;;;;9.13;5.33;;;;;;;-1.41;75.12;102272.56;4900105;29;20021;-93
2022/03/07 22:22:36;;;;;;;11.43;5.80;;;;;;;-1.48;75.20;102274.94;4897362;29;20305;-92
2022/03/07 22:25:03;;;;;;;8.77;5.22;;;;;;;-1.55;75.59;102261.50;4900785;29;20025;-93
2022/03/07 22:27:28;;;;;;;11.23;5.38;;;;;;;-1.55;75.68;102276.47;4898520;29;20045;-92
2022/03/07 22:29:54;;;;;;;9.47;5.57;;;;;;;-1.56;75.59;102272.19;4886972;29;20643;-93
2022/03/07 22:32:20;;;;;;;10.17;5.30;;;;;;;-1.59;76.04;102275.09;4883631;29;20088;-93
2022/03/07 22:34:45;;;;;;;11.15;6.00;;;;;;;-1.65;76.71;102273.84;4882780;29;20076;-93
2022/03/07 22:37:11;;;;;;;9.75;6.15;;;;;;;-1.70;76.36;102271.66;4880808;29;20032;-93
2022/03/07 22:39:38;;;;;;;9.87;5.50;;;;;;;-1.77;76.59;102272.34;4883020;29;20688;-92
2022/03/07 22:42:04;;;;;;;11.80;6.30;;;;;;;-1.86;76.79;102274.03;4864994;29;20037;-93
2022/03/07 22:44:30;;;;;;;11.07;6.03;;;;;;;-1.86;76.89;102274.03;4882808;29;20053;-93
2022/03/07 22:46:55;;;;;;;10.03;6.00;;;;;;;-1.90;77.76;102275.25;4877807;29;20406;-93
2022/03/07 22:49:21;;;;;;;9.70;5.53;;;;;;;-1.94;77.43;102276.50;4886791;29;20029;-93
2022/03/07 22:51:47;;;;;;;8.52;5.60;;;;;;;-2.02;77.47;102280.66;4887336;29;20029;-94
2022/03/07 22:54:13;;;;;;;12.68;5.78;;;;;;;-2.10;77.75;102280.50;4886938;29;20400;-93
2022/03/07 22:56:38;;;;;;;12.70;5.57;;;;;;;-2.13;77.99;102280.78;4896916;29;20077;-92
2022/03/07 22:59:03;;;;;;;12.63;5.88;;;;;;;-2.12;78.14;102277.19;4886526;29;20045;-93
2022/03/07 23:01:29;;;;;;;9.87;5.70;;;;;;;-2.11;78.24;102281.47;4887954;29;20026;-90
2022/03/07 23:03:54;;;;;;;9.73;4.93;;;;;;;-2.19;78.28;102274.28;4887730;29;20009;-93
2022/03/07 23:09:03;;;;;;;10.35;5.32;;;;;;;-2.33;78.67;102282.56;4899468;29;20048;-93
2022/03/07 23:11:29;;;;;;;8.70;5.37;;;;;;;-2.34;78.62;102281.72;4898551;29;20059;-92
2022/03/07 23:13:54;;;;;;;11.55;5.80;;;;;;;-2.48;78.98;102282.13;4887931;29;20411;-92
2022/03/07 23:16:20;;;;;;;11.80;5.77;;;;;;;-2.52;79.15;102281.56;4883044;29;20037;-92
2022/03/07 23:18:45;;;;;;;13.00;5.97;;;;;;;-2.68;79.76;102271.59;4885560;29;20024;-92
2022/03/07 23:21:10;;;;;;;9.30;5.60;;;;;;;-2.76;80.30;102277.50;4884825;29;20522;-92
2022/03/07 23:23:38;;;;;;;12.70;6.30;;;;;;;-2.93;80.56;102271.09;4884609;29;20101;-92
2022/03/07 23:26:04;;;;;;;11.93;5.90;;;;;;;-3.01;81.29;102276.16;4887369;29;20040;-93
2022/03/07 23:28:29;;;;;;;10.90;6.15;;;;;;;-3.13;81.75;102264.94;4883750;29;20033;-92
2022/03/07 23:30:55;;;;;;;13.60;5.87;;;;;;;-3.14;82.02;102278.19;4884510;29;20029;-92
2022/03/07 23:33:21;;;;;;;12.43;6.38;;;;;;;-3.22;82.19;102284.91;4884525;29;20039;-91
2022/03/07 23:35:49;;;;;;;12.23;6.05;;;;;;;-3.28;82.54;102277.56;4884262;29;20028;-91
2022/03/07 23:38:14;;;;;;;11.27;6.03;;;;;;;-3.38;82.68;102271.44;4883433;29;20032;-92
2022/03/07 23:40:41;;;;;;;11.13;5.78;;;;;;;-3.44;83.09;102258.84;4886304;29;20053;-92
2022/03/07 23:43:06;;;;;;;12.65;6.20;;;;;;;-3.42;83.57;102267.41;4884543;29;20069;-91
2022/03/07 23:45:31;;;;;;;11.20;5.70;;;;;;;-3.46;83.90;102268.63;4884782;29;20025;-92
2022/03/07 23:47:57;;;;;;;11.40;6.27;;;;;;;-3.52;83.81;102262.97;4882167;29;20029;-91
2022/03/07 23:50:22;;;;;;;11.37;6.07;;;;;;;-3.62;84.31;102248.94;4882109;29;20036;-91
2022/03/07 23:52:48;;;;;;;12.60;6.13;;;;;;;-3.62;84.30;102256.81;4868482;29;20026;-91
2022/03/07 23:55:14;;;;;;;12.25;6.13;;;;;;;-3.65;85.15;102249.19;4880148;29;20029;-94
2022/03/07 23:57:40;;;;;;;10.47;5.23;;;;;;;-3.63;84.88;102257.78;4885403;29;20017;-93
